sensor_id;sensor_type;location;lat;lon;timestamp;P1;durP1;ratioP1;P2;durP2;ratioP2
31798;SDS011;18374;51.136;3.502;2023-11-21T00:02:11;8.43;;;5.22;;
31798;SDS011;18374;51.136;3.502;2023-11-21T00:04:39;9.13;;;3.88;;
31798;SDS011;18374;51.136;3.502;2023-11-21T00:07:08;6.82;;;4.93;;
31798;SDS011;18374;51.136;3.502;2023-11-21T00:09:37;22.52;;;4.40;;
31798;SDS011;18374;51.136;3.502;2023-11-21T00:12:06;21.98;;;5.07;;
31798;SDS011;18374;51.136;3.502;2023-11-21T00:14:40;11.80;;;5.10;;
31798;SDS011;18374;51.136;3.502;2023-11-21T00:17:09;13.68;;;3.88;;
31798;SDS011;18374;51.136;3.502;2023-11-21T00:19:47;8.23;;;4.07;;
31798;SDS011;18374;51.136;3.502;2023-11-21T00:22:15;8.35;;;4.38;;
31798;SDS011;18374;51.136;3.502;2023-11-21T00:24:43;7.60;;;3.78;;
31798;SDS011;18374;51.136;3.502;2023-11-21T00:27:11;5.75;;;3.65;;
31798;SDS011;18374;51.136;3.502;2023-11-21T00:29:40;6.45;;;4.47;;
31798;SDS011;18374;51.136;3.502;2023-11-21T00:32:09;10.93;;;3.55;;
31798;SDS011;18374;51.136;3.502;2023-11-21T00:34:37;7.22;;;4.15;;
31798;SDS011;18374;51.136;3.502;2023-11-21T00:37:07;6.60;;;4.65;;
31798;SDS011;18374;51.136;3.502;2023-11-21T00:39:35;5.53;;;3.40;;
31798;SDS011;18374;51.136;3.502;2023-11-21T00:42:06;18.98;;;4.30;;
31798;SDS011;18374;51.136;3.502;2023-11-21T00:44:37;11.85;;;4.47;;
31798;SDS011;18374;51.136;3.502;2023-11-21T00:47:06;6.05;;;4.13;;
31798;SDS011;18374;51.136;3.502;2023-11-21T00:49:35;6.10;;;4.05;;
31798;SDS011;18374;51.136;3.502;2023-11-21T00:52:06;10.85;;;4.55;;
31798;SDS011;18374;51.136;3.502;2023-11-21T00:54:35;5.90;;;3.70;;
31798;SDS011;18374;51.136;3.502;2023-11-21T00:57:04;8.18;;;4.63;;
31798;SDS011;18374;51.136;3.502;2023-11-21T00:59:35;9.57;;;3.92;;
31798;SDS011;18374;51.136;3.502;2023-11-21T01:02:04;10.90;;;4.55;;
31798;SDS011;18374;51.136;3.502;2023-11-21T01:04:37;6.32;;;4.15;;
31798;SDS011;18374;51.136;3.502;2023-11-21T01:07:06;11.43;;;4.38;;
31798;SDS011;18374;51.136;3.502;2023-11-21T01:09:35;7.50;;;3.67;;
31798;SDS011;18374;51.136;3.502;2023-11-21T01:12:04;8.68;;;4.07;;
31798;SDS011;18374;51.136;3.502;2023-11-21T01:14:33;7.72;;;4.25;;
31798;SDS011;18374;51.136;3.502;2023-11-21T01:17:04;3.58;;;3.03;;
31798;SDS011;18374;51.136;3.502;2023-11-21T01:19:34;6.15;;;3.92;;
31798;SDS011;18374;51.136;3.502;2023-11-21T01:22:03;4.63;;;3.63;;
31798;SDS011;18374;51.136;3.502;2023-11-21T01:24:53;4.95;;;3.00;;
31798;SDS011;18374;51.136;3.502;2023-11-21T01:27:24;6.00;;;3.33;;
31798;SDS011;18374;51.136;3.502;2023-11-21T01:29:59;7.67;;;3.73;;
31798;SDS011;18374;51.136;3.502;2023-11-21T01:32:28;9.00;;;3.65;;
31798;SDS011;18374;51.136;3.502;2023-11-21T01:34:57;8.68;;;3.88;;
31798;SDS011;18374;51.136;3.502;2023-11-21T01:37:25;6.90;;;3.95;;
31798;SDS011;18374;51.136;3.502;2023-11-21T01:39:55;4.10;;;3.47;;
31798;SDS011;18374;51.136;3.502;2023-11-21T01:42:23;6.57;;;3.88;;
31798;SDS011;18374;51.136;3.502;2023-11-21T01:44:53;7.65;;;3.55;;
31798;SDS011;18374;51.136;3.502;2023-11-21T01:47:21;8.18;;;4.20;;
31798;SDS011;18374;51.136;3.502;2023-11-21T01:49:49;6.47;;;4.00;;
31798;SDS011;18374;51.136;3.502;2023-11-21T01:52:18;7.40;;;3.78;;
31798;SDS011;18374;51.136;3.502;2023-11-21T01:54:46;15.65;;;3.75;;
31798;SDS011;18374;51.136;3.502;2023-11-21T01:57:15;7.55;;;3.63;;
31798;SDS011;18374;51.136;3.502;2023-11-21T01:59:56;8.32;;;3.83;;
31798;SDS011;18374;51.136;3.502;2023-11-21T02:02:27;7.80;;;3.90;;
31798;SDS011;18374;51.136;3.502;2023-11-21T02:04:57;7.50;;;3.65;;
31798;SDS011;18374;51.136;3.502;2023-11-21T02:07:26;6.00;;;3.42;;
31798;SDS011;18374;51.136;3.502;2023-11-21T02:09:55;8.38;;;3.90;;
31798;SDS011;18374;51.136;3.502;2023-11-21T02:12:24;3.80;;;2.67;;
31798;SDS011;18374;51.136;3.502;2023-11-21T02:14:53;7.68;;;3.72;;
31798;SDS011;18374;51.136;3.502;2023-11-21T02:17:22;17.45;;;4.43;;
31798;SDS011;18374;51.136;3.502;2023-11-21T02:19:52;5.68;;;3.78;;
31798;SDS011;18374;51.136;3.502;2023-11-21T02:22:28;7.95;;;3.15;;
31798;SDS011;18374;51.136;3.502;2023-11-21T02:25:29;6.32;;;3.75;;
31798;SDS011;18374;51.136;3.502;2023-11-21T02:28:15;5.78;;;2.78;;
31798;SDS011;18374;51.136;3.502;2023-11-21T02:30:53;7.70;;;3.85;;
31798;SDS011;18374;51.136;3.502;2023-11-21T02:33:22;4.63;;;2.95;;
31798;SDS011;18374;51.136;3.502;2023-11-21T02:35:51;8.35;;;3.40;;
31798;SDS011;18374;51.136;3.502;2023-11-21T02:38:33;13.18;;;3.20;;
31798;SDS011;18374;51.136;3.502;2023-11-21T02:41:01;11.52;;;3.65;;
31798;SDS011;18374;51.136;3.502;2023-11-21T02:43:30;4.15;;;3.20;;
31798;SDS011;18374;51.136;3.502;2023-11-21T02:45:58;7.53;;;3.00;;
31798;SDS011;18374;51.136;3.502;2023-11-21T02:48:26;6.70;;;3.50;;
31798;SDS011;18374;51.136;3.502;2023-11-21T02:50:54;5.18;;;3.00;;
31798;SDS011;18374;51.136;3.502;2023-11-21T02:53:22;7.20;;;3.95;;
31798;SDS011;18374;51.136;3.502;2023-11-21T02:55:51;4.55;;;2.90;;
31798;SDS011;18374;51.136;3.502;2023-11-21T02:58:19;4.57;;;3.00;;
31798;SDS011;18374;51.136;3.502;2023-11-21T03:00:46;4.47;;;3.20;;
31798;SDS011;18374;51.136;3.502;2023-11-21T03:03:14;8.95;;;4.10;;
31798;SDS011;18374;51.136;3.502;2023-11-21T03:05:42;6.13;;;2.97;;
31798;SDS011;18374;51.136;3.502;2023-11-21T03:08:10;3.55;;;2.50;;
31798;SDS011;18374;51.136;3.502;2023-11-21T03:10:37;4.95;;;3.38;;
31798;SDS011;18374;51.136;3.502;2023-11-21T03:13:05;14.43;;;2.22;;
31798;SDS011;18374;51.136;3.502;2023-11-21T03:15:33;6.07;;;3.17;;
31798;SDS011;18374;51.136;3.502;2023-11-21T03:18:02;3.90;;;3.25;;
31798;SDS011;18374;51.136;3.502;2023-11-21T03:20:32;3.38;;;2.70;;
31798;SDS011;18374;51.136;3.502;2023-11-21T03:23:03;4.55;;;3.42;;
31798;SDS011;18374;51.136;3.502;2023-11-21T03:25:31;11.15;;;3.67;;
31798;SDS011;18374;51.136;3.502;2023-11-21T03:27:59;3.60;;;2.70;;
31798;SDS011;18374;51.136;3.502;2023-11-21T03:30:29;9.98;;;4.05;;
31798;SDS011;18374;51.136;3.502;2023-11-21T03:32:57;7.63;;;3.45;;
31798;SDS011;18374;51.136;3.502;2023-11-21T03:35:25;3.65;;;2.78;;
31798;SDS011;18374;51.136;3.502;2023-11-21T03:37:53;13.65;;;3.30;;
31798;SDS011;18374;51.136;3.502;2023-11-21T03:40:21;5.68;;;2.92;;
31798;SDS011;18374;51.136;3.502;2023-11-21T03:42:49;3.88;;;2.72;;
31798;SDS011;18374;51.136;3.502;2023-11-21T03:45:20;4.38;;;3.03;;
31798;SDS011;18374;51.136;3.502;2023-11-21T03:47:48;7.28;;;3.08;;
31798;SDS011;18374;51.136;3.502;2023-11-21T03:50:16;3.38;;;2.53;;
31798;SDS011;18374;51.136;3.502;2023-11-21T03:52:44;3.70;;;2.78;;
31798;SDS011;18374;51.136;3.502;2023-11-21T03:55:11;6.20;;;2.80;;
31798;SDS011;18374;51.136;3.502;2023-11-21T03:57:42;4.55;;;3.15;;
31798;SDS011;18374;51.136;3.502;2023-11-21T04:00:11;10.45;;;3.65;;
31798;SDS011;18374;51.136;3.502;2023-11-21T04:02:40;7.47;;;3.75;;
31798;SDS011;18374;51.136;3.502;2023-11-21T04:05:10;7.07;;;3.00;;
31798;SDS011;18374;51.136;3.502;2023-11-21T04:07:39;6.22;;;3.60;;
31798;SDS011;18374;51.136;3.502;2023-11-21T04:10:08;4.53;;;3.28;;
31798;SDS011;18374;51.136;3.502;2023-11-21T04:12:39;5.68;;;2.75;;
31798;SDS011;18374;51.136;3.502;2023-11-21T04:15:08;8.80;;;3.97;;
31798;SDS011;18374;51.136;3.502;2023-11-21T04:17:50;5.55;;;2.92;;
31798;SDS011;18374;51.136;3.502;2023-11-21T04:20:18;3.10;;;2.28;;
31798;SDS011;18374;51.136;3.502;2023-11-21T04:22:50;3.08;;;2.60;;
31798;SDS011;18374;51.136;3.502;2023-11-21T04:25:19;7.50;;;2.95;;
31798;SDS011;18374;51.136;3.502;2023-11-21T04:27:50;4.93;;;2.50;;
31798;SDS011;18374;51.136;3.502;2023-11-21T04:30:17;4.78;;;2.50;;
31798;SDS011;18374;51.136;3.502;2023-11-21T04:32:45;5.78;;;3.10;;
31798;SDS011;18374;51.136;3.502;2023-11-21T04:35:13;8.05;;;2.97;;
31798;SDS011;18374;51.136;3.502;2023-11-21T04:37:41;5.18;;;2.63;;
31798;SDS011;18374;51.136;3.502;2023-11-21T04:40:09;4.45;;;3.38;;
31798;SDS011;18374;51.136;3.502;2023-11-21T04:42:38;4.90;;;2.92;;
31798;SDS011;18374;51.136;3.502;2023-11-21T04:45:06;5.97;;;2.60;;
31798;SDS011;18374;51.136;3.502;2023-11-21T04:47:40;9.32;;;4.38;;
31798;SDS011;18374;51.136;3.502;2023-11-21T04:50:08;4.05;;;2.67;;
31798;SDS011;18374;51.136;3.502;2023-11-21T04:52:36;5.22;;;3.08;;
31798;SDS011;18374;51.136;3.502;2023-11-21T04:55:04;12.35;;;3.42;;
31798;SDS011;18374;51.136;3.502;2023-11-21T04:57:33;12.25;;;2.90;;
31798;SDS011;18374;51.136;3.502;2023-11-21T05:00:02;6.18;;;2.67;;
31798;SDS011;18374;51.136;3.502;2023-11-21T05:02:33;5.07;;;3.17;;
31798;SDS011;18374;51.136;3.502;2023-11-21T05:05:02;3.58;;;2.50;;
31798;SDS011;18374;51.136;3.502;2023-11-21T05:07:40;4.28;;;2.67;;
31798;SDS011;18374;51.136;3.502;2023-11-21T05:10:08;9.80;;;3.10;;
31798;SDS011;18374;51.136;3.502;2023-11-21T05:12:40;6.32;;;3.38;;
31798;SDS011;18374;51.136;3.502;2023-11-21T05:15:09;4.30;;;2.80;;
31798;SDS011;18374;51.136;3.502;2023-11-21T05:17:40;3.17;;;2.22;;
31798;SDS011;18374;51.136;3.502;2023-11-21T05:20:12;24.00;;;4.53;;
31798;SDS011;18374;51.136;3.502;2023-11-21T05:22:41;7.82;;;3.45;;
31798;SDS011;18374;51.136;3.502;2023-11-21T05:25:09;30.55;;;4.95;;
31798;SDS011;18374;51.136;3.502;2023-11-21T05:27:38;8.68;;;3.55;;
31798;SDS011;18374;51.136;3.502;2023-11-21T05:30:06;6.03;;;2.85;;
31798;SDS011;18374;51.136;3.502;2023-11-21T05:32:39;17.98;;;3.65;;
31798;SDS011;18374;51.136;3.502;2023-11-21T05:35:11;9.20;;;3.65;;
31798;SDS011;18374;51.136;3.502;2023-11-21T05:37:44;4.45;;;2.83;;
31798;SDS011;18374;51.136;3.502;2023-11-21T05:40:13;20.02;;;3.38;;
31798;SDS011;18374;51.136;3.502;2023-11-21T05:42:43;32.17;;;4.70;;
31798;SDS011;18374;51.136;3.502;2023-11-21T05:45:12;6.68;;;3.75;;
31798;SDS011;18374;51.136;3.502;2023-11-21T05:47:43;9.15;;;3.53;;
31798;SDS011;18374;51.136;3.502;2023-11-21T05:50:16;10.65;;;3.30;;
31798;SDS011;18374;51.136;3.502;2023-11-21T05:52:44;6.32;;;3.78;;
31798;SDS011;18374;51.136;3.502;2023-11-21T05:55:13;8.45;;;3.72;;
31798;SDS011;18374;51.136;3.502;2023-11-21T05:57:42;11.52;;;3.17;;
31798;SDS011;18374;51.136;3.502;2023-11-21T06:00:12;6.88;;;4.10;;
31798;SDS011;18374;51.136;3.502;2023-11-21T06:02:49;7.45;;;3.78;;
31798;SDS011;18374;51.136;3.502;2023-11-21T06:05:19;5.70;;;2.15;;
31798;SDS011;18374;51.136;3.502;2023-11-21T06:07:54;5.20;;;3.38;;
31798;SDS011;18374;51.136;3.502;2023-11-21T06:10:26;7.65;;;3.65;;
31798;SDS011;18374;51.136;3.502;2023-11-21T06:12:57;8.98;;;3.75;;
31798;SDS011;18374;51.136;3.502;2023-11-21T06:15:30;5.25;;;3.10;;
31798;SDS011;18374;51.136;3.502;2023-11-21T06:17:59;13.63;;;4.38;;
31798;SDS011;18374;51.136;3.502;2023-11-21T06:20:28;19.30;;;3.92;;
31798;SDS011;18374;51.136;3.502;2023-11-21T06:23:04;32.10;;;5.13;;
31798;SDS011;18374;51.136;3.502;2023-11-21T06:25:36;15.00;;;3.67;;
31798;SDS011;18374;51.136;3.502;2023-11-21T06:28:07;16.42;;;3.38;;
31798;SDS011;18374;51.136;3.502;2023-11-21T06:30:35;5.78;;;3.42;;
31798;SDS011;18374;51.136;3.502;2023-11-21T06:33:03;19.30;;;3.90;;
31798;SDS011;18374;51.136;3.502;2023-11-21T06:35:31;5.57;;;2.78;;
31798;SDS011;18374;51.136;3.502;2023-11-21T06:38:01;4.85;;;2.45;;
31798;SDS011;18374;51.136;3.502;2023-11-21T06:40:30;4.20;;;2.53;;
31798;SDS011;18374;51.136;3.502;2023-11-21T06:43:00;3.80;;;2.55;;
31798;SDS011;18374;51.136;3.502;2023-11-21T06:45:29;5.65;;;3.05;;
31798;SDS011;18374;51.136;3.502;2023-11-21T06:47:57;6.32;;;2.90;;
31798;SDS011;18374;51.136;3.502;2023-11-21T06:50:25;5.05;;;3.30;;
31798;SDS011;18374;51.136;3.502;2023-11-21T06:52:53;2.70;;;2.20;;
31798;SDS011;18374;51.136;3.502;2023-11-21T06:55:21;5.95;;;3.17;;
31798;SDS011;18374;51.136;3.502;2023-11-21T06:57:49;4.70;;;2.50;;
31798;SDS011;18374;51.136;3.502;2023-11-21T07:00:19;5.38;;;2.10;;
31798;SDS011;18374;51.136;3.502;2023-11-21T07:02:47;4.72;;;2.83;;
31798;SDS011;18374;51.136;3.502;2023-11-21T07:05:31;7.55;;;2.35;;
31798;SDS011;18374;51.136;3.502;2023-11-21T07:07:59;4.63;;;2.60;;
31798;SDS011;18374;51.136;3.502;2023-11-21T07:10:31;6.43;;;3.13;;
31798;SDS011;18374;51.136;3.502;2023-11-21T07:12:59;8.18;;;2.63;;
31798;SDS011;18374;51.136;3.502;2023-11-21T07:15:28;1.80;;;1.70;;
31798;SDS011;18374;51.136;3.502;2023-11-21T07:17:56;6.03;;;2.38;;
31798;SDS011;18374;51.136;3.502;2023-11-21T07:20:24;7.88;;;2.60;;
31798;SDS011;18374;51.136;3.502;2023-11-21T07:22:52;3.10;;;1.92;;
31798;SDS011;18374;51.136;3.502;2023-11-21T07:25:20;11.80;;;2.30;;
31798;SDS011;18374;51.136;3.502;2023-11-21T07:27:49;3.65;;;2.28;;
31798;SDS011;18374;51.136;3.502;2023-11-21T07:30:17;14.55;;;3.38;;
31798;SDS011;18374;51.136;3.502;2023-11-21T07:32:45;3.55;;;2.58;;
31798;SDS011;18374;51.136;3.502;2023-11-21T07:35:15;4.85;;;2.20;;
31798;SDS011;18374;51.136;3.502;2023-11-21T07:37:43;2.97;;;1.85;;
31798;SDS011;18374;51.136;3.502;2023-11-21T07:40:11;4.10;;;2.28;;
31798;SDS011;18374;51.136;3.502;2023-11-21T07:42:40;2.80;;;1.63;;
31798;SDS011;18374;51.136;3.502;2023-11-21T07:45:10;4.15;;;2.53;;
31798;SDS011;18374;51.136;3.502;2023-11-21T07:47:38;5.90;;;2.35;;
31798;SDS011;18374;51.136;3.502;2023-11-21T07:50:07;5.25;;;3.05;;
31798;SDS011;18374;51.136;3.502;2023-11-21T07:52:36;6.32;;;2.55;;
31798;SDS011;18374;51.136;3.502;2023-11-21T07:55:04;5.13;;;3.28;;
31798;SDS011;18374;51.136;3.502;2023-11-21T07:57:32;3.38;;;2.53;;
31798;SDS011;18374;51.136;3.502;2023-11-21T08:00:00;3.42;;;2.20;;
31798;SDS011;18374;51.136;3.502;2023-11-21T08:02:38;3.55;;;1.60;;
31798;SDS011;18374;51.136;3.502;2023-11-21T08:05:09;4.68;;;2.28;;
31798;SDS011;18374;51.136;3.502;2023-11-21T08:07:50;4.68;;;2.05;;
31798;SDS011;18374;51.136;3.502;2023-11-21T08:10:18;3.88;;;2.00;;
31798;SDS011;18374;51.136;3.502;2023-11-21T08:12:48;5.85;;;2.65;;
31798;SDS011;18374;51.136;3.502;2023-11-21T08:15:17;4.50;;;2.47;;
31798;SDS011;18374;51.136;3.502;2023-11-21T08:17:46;3.05;;;1.90;;
31798;SDS011;18374;51.136;3.502;2023-11-21T08:20:15;1.83;;;1.50;;
31798;SDS011;18374;51.136;3.502;2023-11-21T08:22:45;4.55;;;1.90;;
31798;SDS011;18374;51.136;3.502;2023-11-21T08:25:15;3.08;;;1.65;;
31798;SDS011;18374;51.136;3.502;2023-11-21T08:27:47;4.22;;;1.42;;
31798;SDS011;18374;51.136;3.502;2023-11-21T08:30:15;2.10;;;1.15;;
31798;SDS011;18374;51.136;3.502;2023-11-21T08:32:46;2.50;;;1.42;;
31798;SDS011;18374;51.136;3.502;2023-11-21T08:35:14;1.95;;;1.50;;
31798;SDS011;18374;51.136;3.502;2023-11-21T08:37:43;2.35;;;1.27;;
31798;SDS011;18374;51.136;3.502;2023-11-21T08:40:11;4.05;;;1.30;;
31798;SDS011;18374;51.136;3.502;2023-11-21T08:42:44;3.45;;;1.80;;
31798;SDS011;18374;51.136;3.502;2023-11-21T08:45:12;1.95;;;1.40;;
31798;SDS011;18374;51.136;3.502;2023-11-21T08:47:45;2.80;;;1.55;;
31798;SDS011;18374;51.136;3.502;2023-11-21T08:50:13;3.03;;;1.70;;
31798;SDS011;18374;51.136;3.502;2023-11-21T08:52:42;2.50;;;1.02;;
31798;SDS011;18374;51.136;3.502;2023-11-21T08:55:11;6.30;;;1.40;;
31798;SDS011;18374;51.136;3.502;2023-11-21T08:57:39;4.78;;;1.05;;
31798;SDS011;18374;51.136;3.502;2023-11-21T09:00:08;2.20;;;1.02;;
31798;SDS011;18374;51.136;3.502;2023-11-21T09:02:46;1.67;;;1.10;;
31798;SDS011;18374;51.136;3.502;2023-11-21T09:05:14;3.47;;;1.17;;
31798;SDS011;18374;51.136;3.502;2023-11-21T09:07:43;1.55;;;1.20;;
31798;SDS011;18374;51.136;3.502;2023-11-21T09:10:13;1.73;;;1.20;;
31798;SDS011;18374;51.136;3.502;2023-11-21T09:12:41;0.82;;;0.82;;
31798;SDS011;18374;51.136;3.502;2023-11-21T09:15:10;4.63;;;1.20;;
31798;SDS011;18374;51.136;3.502;2023-11-21T09:17:38;1.38;;;0.88;;
31798;SDS011;18374;51.136;3.502;2023-11-21T09:20:07;2.30;;;0.68;;
31798;SDS011;18374;51.136;3.502;2023-11-21T09:22:37;0.80;;;0.47;;
31798;SDS011;18374;51.136;3.502;2023-11-21T09:25:06;0.93;;;0.70;;
31798;SDS011;18374;51.136;3.502;2023-11-21T09:27:35;6.95;;;0.60;;
31798;SDS011;18374;51.136;3.502;2023-11-21T09:30:03;2.10;;;0.60;;
31798;SDS011;18374;51.136;3.502;2023-11-21T09:32:32;2.20;;;0.60;;
31798;SDS011;18374;51.136;3.502;2023-11-21T09:35:02;0.68;;;0.50;;
31798;SDS011;18374;51.136;3.502;2023-11-21T09:37:31;2.03;;;1.10;;
31798;SDS011;18374;51.136;3.502;2023-11-21T09:39:59;0.82;;;0.63;;
31798;SDS011;18374;51.136;3.502;2023-11-21T09:42:38;1.00;;;0.68;;
31798;SDS011;18374;51.136;3.502;2023-11-21T09:47:58;3.25;;;0.93;;
31798;SDS011;18374;51.136;3.502;2023-11-21T09:50:26;3.95;;;0.80;;
31798;SDS011;18374;51.136;3.502;2023-11-21T09:55:29;9.68;;;1.98;;
31798;SDS011;18374;51.136;3.502;2023-11-21T09:57:58;11.18;;;1.92;;
31798;SDS011;18374;51.136;3.502;2023-11-21T10:00:27;3.63;;;1.83;;
31798;SDS011;18374;51.136;3.502;2023-11-21T10:02:57;3.65;;;2.10;;
31798;SDS011;18374;51.136;3.502;2023-11-21T10:05:26;4.72;;;1.67;;
31798;SDS011;18374;51.136;3.502;2023-11-21T10:07:55;3.83;;;2.40;;
31798;SDS011;18374;51.136;3.502;2023-11-21T10:10:24;3.88;;;1.98;;
31798;SDS011;18374;51.136;3.502;2023-11-21T10:12:54;3.20;;;1.98;;
31798;SDS011;18374;51.136;3.502;2023-11-21T10:15:23;3.10;;;1.85;;
31798;SDS011;18374;51.136;3.502;2023-11-21T10:17:52;3.53;;;1.70;;
31798;SDS011;18374;51.136;3.502;2023-11-21T10:20:20;1.95;;;1.30;;
31798;SDS011;18374;51.136;3.502;2023-11-21T10:22:49;1.40;;;1.10;;
31798;SDS011;18374;51.136;3.502;2023-11-21T10:25:18;5.18;;;2.08;;
31798;SDS011;18374;51.136;3.502;2023-11-21T10:27:48;2.55;;;1.67;;
31798;SDS011;18374;51.136;3.502;2023-11-21T10:30:19;1.63;;;1.45;;
31798;SDS011;18374;51.136;3.502;2023-11-21T10:32:47;2.90;;;1.10;;
31798;SDS011;18374;51.136;3.502;2023-11-21T10:35:16;2.95;;;1.30;;
31798;SDS011;18374;51.136;3.502;2023-11-21T10:37:44;10.05;;;1.67;;
31798;SDS011;18374;51.136;3.502;2023-11-21T10:40:12;10.73;;;1.70;;
31798;SDS011;18374;51.136;3.502;2023-11-21T10:42:40;7.03;;;1.63;;
31798;SDS011;18374;51.136;3.502;2023-11-21T10:45:09;11.45;;;2.08;;
31798;SDS011;18374;51.136;3.502;2023-11-21T10:47:41;5.18;;;1.38;;
31798;SDS011;18374;51.136;3.502;2023-11-21T10:50:10;5.00;;;1.35;;
31798;SDS011;18374;51.136;3.502;2023-11-21T10:52:39;3.90;;;1.20;;
31798;SDS011;18374;51.136;3.502;2023-11-21T10:55:19;3.20;;;1.70;;
31798;SDS011;18374;51.136;3.502;2023-11-21T10:57:49;3.70;;;1.42;;
31798;SDS011;18374;51.136;3.502;2023-11-21T11:00:19;1.50;;;1.08;;
31798;SDS011;18374;51.136;3.502;2023-11-21T11:02:51;3.00;;;1.45;;
31798;SDS011;18374;51.136;3.502;2023-11-21T11:05:23;5.13;;;1.58;;
31798;SDS011;18374;51.136;3.502;2023-11-21T11:07:57;1.77;;;1.30;;
31798;SDS011;18374;51.136;3.502;2023-11-21T11:10:28;4.28;;;1.40;;
31798;SDS011;18374;51.136;3.502;2023-11-21T11:12:56;15.18;;;1.80;;
31798;SDS011;18374;51.136;3.502;2023-11-21T11:15:25;4.97;;;1.10;;
31798;SDS011;18374;51.136;3.502;2023-11-21T11:17:54;8.38;;;1.33;;
31798;SDS011;18374;51.136;3.502;2023-11-21T11:20:27;7.57;;;0.95;;
31798;SDS011;18374;51.136;3.502;2023-11-21T11:23:17;5.68;;;1.17;;
31798;SDS011;18374;51.136;3.502;2023-11-21T11:28:51;4.05;;;1.27;;
31798;SDS011;18374;51.136;3.502;2023-11-21T11:34:35;1.42;;;0.50;;
31798;SDS011;18374;51.136;3.502;2023-11-21T11:37:09;3.28;;;1.20;;
31798;SDS011;18374;51.136;3.502;2023-11-21T11:39:39;7.35;;;1.00;;
31798;SDS011;18374;51.136;3.502;2023-11-21T11:42:11;4.32;;;1.00;;
31798;SDS011;18374;51.136;3.502;2023-11-21T11:47:25;2.40;;;0.90;;
31798;SDS011;18374;51.136;3.502;2023-11-21T11:52:49;3.55;;;1.20;;
31798;SDS011;18374;51.136;3.502;2023-11-21T11:55:21;12.07;;;1.33;;
31798;SDS011;18374;51.136;3.502;2023-11-21T11:57:52;4.50;;;1.35;;
31798;SDS011;18374;51.136;3.502;2023-11-21T12:03:00;3.95;;;1.00;;
31798;SDS011;18374;51.136;3.502;2023-11-21T12:08:03;3.53;;;0.57;;
31798;SDS011;18374;51.136;3.502;2023-11-21T12:10:33;1.02;;;0.80;;
31798;SDS011;18374;51.136;3.502;2023-11-21T12:13:05;3.42;;;0.65;;
31798;SDS011;18374;51.136;3.502;2023-11-21T12:15:34;1.92;;;0.95;;
31798;SDS011;18374;51.136;3.502;2023-11-21T12:18:04;5.43;;;1.00;;
31798;SDS011;18374;51.136;3.502;2023-11-21T12:20:33;2.67;;;0.73;;
31798;SDS011;18374;51.136;3.502;2023-11-21T12:23:06;1.50;;;0.68;;
31798;SDS011;18374;51.136;3.502;2023-11-21T12:25:38;1.02;;;0.32;;
31798;SDS011;18374;51.136;3.502;2023-11-21T12:28:09;4.43;;;1.00;;
31798;SDS011;18374;51.136;3.502;2023-11-21T12:30:38;1.20;;;0.60;;
31798;SDS011;18374;51.136;3.502;2023-11-21T12:33:07;1.20;;;0.70;;
31798;SDS011;18374;51.136;3.502;2023-11-21T12:35:37;0.80;;;0.60;;
31798;SDS011;18374;51.136;3.502;2023-11-21T12:38:05;1.42;;;0.65;;
31798;SDS011;18374;51.136;3.502;2023-11-21T12:40:36;1.77;;;0.70;;
31798;SDS011;18374;51.136;3.502;2023-11-21T12:43:04;3.97;;;1.42;;
31798;SDS011;18374;51.136;3.502;2023-11-21T12:45:34;1.15;;;0.63;;
31798;SDS011;18374;51.136;3.502;2023-11-21T12:48:05;0.90;;;0.70;;
31798;SDS011;18374;51.136;3.502;2023-11-21T12:50:38;3.17;;;0.73;;
31798;SDS011;18374;51.136;3.502;2023-11-21T12:53:07;3.30;;;1.27;;
31798;SDS011;18374;51.136;3.502;2023-11-21T12:55:37;1.13;;;0.63;;
31798;SDS011;18374;51.136;3.502;2023-11-21T12:58:07;3.10;;;0.55;;
31798;SDS011;18374;51.136;3.502;2023-11-21T13:00:47;2.13;;;0.80;;
31798;SDS011;18374;51.136;3.502;2023-11-21T13:03:16;5.75;;;1.25;;
31798;SDS011;18374;51.136;3.502;2023-11-21T13:05:50;7.10;;;0.70;;
31798;SDS011;18374;51.136;3.502;2023-11-21T13:08:22;1.40;;;0.45;;
31798;SDS011;18374;51.136;3.502;2023-11-21T13:10:52;0.47;;;0.47;;
31798;SDS011;18374;51.136;3.502;2023-11-21T13:13:23;1.10;;;0.70;;
31798;SDS011;18374;51.136;3.502;2023-11-21T13:16:02;0.95;;;0.40;;
31798;SDS011;18374;51.136;3.502;2023-11-21T13:18:33;1.83;;;0.70;;
31798;SDS011;18374;51.136;3.502;2023-11-21T13:21:05;1.65;;;0.60;;
31798;SDS011;18374;51.136;3.502;2023-11-21T13:23:41;4.78;;;0.60;;
31798;SDS011;18374;51.136;3.502;2023-11-21T13:26:10;0.88;;;0.43;;
31798;SDS011;18374;51.136;3.502;2023-11-21T13:28:39;2.30;;;0.63;;
31798;SDS011;18374;51.136;3.502;2023-11-21T13:31:09;0.30;;;0.30;;
31798;SDS011;18374;51.136;3.502;2023-11-21T13:33:48;1.02;;;0.50;;
31798;SDS011;18374;51.136;3.502;2023-11-21T13:36:22;2.45;;;0.50;;
31798;SDS011;18374;51.136;3.502;2023-11-21T13:38:51;1.15;;;0.55;;
31798;SDS011;18374;51.136;3.502;2023-11-21T13:41:20;0.70;;;0.47;;
31798;SDS011;18374;51.136;3.502;2023-11-21T13:43:58;2.28;;;0.45;;
31798;SDS011;18374;51.136;3.502;2023-11-21T13:46:41;3.95;;;0.50;;
31798;SDS011;18374;51.136;3.502;2023-11-21T13:49:09;0.70;;;0.40;;
31798;SDS011;18374;51.136;3.502;2023-11-21T13:51:38;2.13;;;0.82;;
31798;SDS011;18374;51.136;3.502;2023-11-21T13:54:12;5.95;;;0.88;;
31798;SDS011;18374;51.136;3.502;2023-11-21T13:56:41;0.40;;;0.38;;
31798;SDS011;18374;51.136;3.502;2023-11-21T13:59:12;1.60;;;0.95;;
31798;SDS011;18374;51.136;3.502;2023-11-21T14:02:00;3.80;;;0.50;;
31798;SDS011;18374;51.136;3.502;2023-11-21T14:04:44;0.47;;;0.43;;
31798;SDS011;18374;51.136;3.502;2023-11-21T14:07:23;0.40;;;0.40;;
31798;SDS011;18374;51.136;3.502;2023-11-21T14:10:14;3.13;;;0.60;;
31798;SDS011;18374;51.136;3.502;2023-11-21T14:12:43;0.77;;;0.55;;
31798;SDS011;18374;51.136;3.502;2023-11-21T14:15:11;0.98;;;0.52;;
31798;SDS011;18374;51.136;3.502;2023-11-21T14:17:44;7.13;;;0.70;;
31798;SDS011;18374;51.136;3.502;2023-11-21T14:20:12;0.50;;;0.40;;
31798;SDS011;18374;51.136;3.502;2023-11-21T14:22:44;5.45;;;1.00;;
31798;SDS011;18374;51.136;3.502;2023-11-21T14:25:12;3.15;;;0.55;;
31798;SDS011;18374;51.136;3.502;2023-11-21T14:27:41;1.17;;;0.70;;
31798;SDS011;18374;51.136;3.502;2023-11-21T14:30:09;8.07;;;1.13;;
31798;SDS011;18374;51.136;3.502;2023-11-21T14:32:40;1.98;;;1.13;;
31798;SDS011;18374;51.136;3.502;2023-11-21T14:35:09;3.08;;;0.50;;
31798;SDS011;18374;51.136;3.502;2023-11-21T14:37:37;0.95;;;0.43;;
31798;SDS011;18374;51.136;3.502;2023-11-21T14:40:06;3.92;;;0.52;;
31798;SDS011;18374;51.136;3.502;2023-11-21T14:42:36;0.70;;;0.52;;
31798;SDS011;18374;51.136;3.502;2023-11-21T14:45:07;1.35;;;0.60;;
31798;SDS011;18374;51.136;3.502;2023-11-21T14:47:35;1.35;;;0.70;;
31798;SDS011;18374;51.136;3.502;2023-11-21T14:50:10;1.95;;;0.60;;
31798;SDS011;18374;51.136;3.502;2023-11-21T14:53:01;1.85;;;0.57;;
31798;SDS011;18374;51.136;3.502;2023-11-21T14:55:33;6.72;;;1.00;;
31798;SDS011;18374;51.136;3.502;2023-11-21T14:58:17;3.40;;;0.77;;
31798;SDS011;18374;51.136;3.502;2023-11-21T15:00:57;0.95;;;0.25;;
31798;SDS011;18374;51.136;3.502;2023-11-21T15:03:28;2.75;;;0.57;;
31798;SDS011;18374;51.136;3.502;2023-11-21T15:06:00;3.13;;;0.68;;
31798;SDS011;18374;51.136;3.502;2023-11-21T15:08:49;0.63;;;0.55;;
31798;SDS011;18374;51.136;3.502;2023-11-21T15:11:44;1.23;;;0.93;;
31798;SDS011;18374;51.136;3.502;2023-11-21T15:14:14;0.80;;;0.60;;
31798;SDS011;18374;51.136;3.502;2023-11-21T15:16:48;1.52;;;0.70;;
31798;SDS011;18374;51.136;3.502;2023-11-21T15:19:20;1.55;;;0.57;;
31798;SDS011;18374;51.136;3.502;2023-11-21T15:21:53;1.70;;;0.98;;
31798;SDS011;18374;51.136;3.502;2023-11-21T15:24:21;1.08;;;0.93;;
31798;SDS011;18374;51.136;3.502;2023-11-21T15:26:49;4.60;;;1.13;;
31798;SDS011;18374;51.136;3.502;2023-11-21T15:29:17;2.60;;;0.90;;